Terminal Aerodrome Forecast
Issued by NWS Bismarck, ND

Home | Current Version | Previous Version | Text Only | Print | Product List | Glossary Off
Versions: 1 2 3 4 5 6 7 8 9 10 11 12 13 14 15 16 17 18 19 20 21 22 23 24 25 26 27

233
FTUS43 KBIS 220327 AAC
TAFISN
TAF AMD
KISN 220327Z 2203/2224 34006KT 5SM BR BKN035
     FM220600 36006KT 2SM BR VCSH OVC008
     FM220700 36007KT 3SM -RASN OVC008
     FM220900 01009KT 2SM -SN BR OVC005
     FM221300 36011KT 2SM BR VCSH OVC008
     FM221500 36010KT P6SM OVC010=

USA.gov is the U.S. government's official web portal to all federal, state and local government web resources and services.